sensor_id;sensor_type;location;lat;lon;timestamp;temperature;humidity
22185;DHT22;11258;52.516;13.318;2023-10-09T00:02:08;13.30;99.90
22185;DHT22;11258;52.516;13.318;2023-10-09T00:04:36;13.10;99.90
22185;DHT22;11258;52.516;13.318;2023-10-09T00:07:07;12.90;99.90
22185;DHT22;11258;52.516;13.318;2023-10-09T00:09:36;12.90;99.90
22185;DHT22;11258;52.516;13.318;2023-10-09T00:12:22;12.90;99.90
22185;DHT22;11258;52.516;13.318;2023-10-09T00:14:49;12.90;99.90
22185;DHT22;11258;52.516;13.318;2023-10-09T00:17:20;12.90;99.90
22185;DHT22;11258;52.516;13.318;2023-10-09T00:19:48;12.80;99.90
22185;DHT22;11258;52.516;13.318;2023-10-09T00:22:17;12.80;99.90
22185;DHT22;11258;52.516;13.318;2023-10-09T00:24:57;12.80;99.90
22185;DHT22;11258;52.516;13.318;2023-10-09T00:27:45;12.90;99.90
22185;DHT22;11258;52.516;13.318;2023-10-09T00:30:13;12.90;99.90
22185;DHT22;11258;52.516;13.318;2023-10-09T00:32:41;12.90;99.90
22185;DHT22;11258;52.516;13.318;2023-10-09T00:35:09;12.90;99.90
22185;DHT22;11258;52.516;13.318;2023-10-09T00:37:53;13.00;99.90
22185;DHT22;11258;52.516;13.318;2023-10-09T00:40:30;12.80;99.90
22185;DHT22;11258;52.516;13.318;2023-10-09T00:42:57;12.80;99.90
22185;DHT22;11258;52.516;13.318;2023-10-09T00:45:27;12.70;99.90
22185;DHT22;11258;52.516;13.318;2023-10-09T00:47:57;12.60;99.90
22185;DHT22;11258;52.516;13.318;2023-10-09T00:50:26;12.30;99.90
22185;DHT22;11258;52.516;13.318;2023-10-09T00:53:01;12.30;99.90
22185;DHT22;11258;52.516;13.318;2023-10-09T00:55:36;12.20;99.90
22185;DHT22;11258;52.516;13.318;2023-10-09T00:58:10;12.10;99.90
22185;DHT22;11258;52.516;13.318;2023-10-09T01:00:43;12.20;99.90
22185;DHT22;11258;52.516;13.318;2023-10-09T01:03:09;12.20;99.90
22185;DHT22;11258;52.516;13.318;2023-10-09T01:05:58;12.30;99.90
22185;DHT22;11258;52.516;13.318;2023-10-09T01:08:39;12.20;99.90
22185;DHT22;11258;52.516;13.318;2023-10-09T01:11:10;12.20;99.90
22185;DHT22;11258;52.516;13.318;2023-10-09T01:13:41;12.20;99.90
22185;DHT22;11258;52.516;13.318;2023-10-09T01:16:19;12.10;99.90
22185;DHT22;11258;52.516;13.318;2023-10-09T01:18:54;12.10;99.90
22185;DHT22;11258;52.516;13.318;2023-10-09T01:21:22;12.00;99.90
22185;DHT22;11258;52.516;13.318;2023-10-09T01:23:53;12.00;99.90
22185;DHT22;11258;52.516;13.318;2023-10-09T01:26:38;11.90;99.90
22185;DHT22;11258;52.516;13.318;2023-10-09T01:29:11;11.90;99.90
22185;DHT22;11258;52.516;13.318;2023-10-09T01:31:50;11.90;99.90
22185;DHT22;11258;52.516;13.318;2023-10-09T01:34:28;11.80;99.90
22185;DHT22;11258;52.516;13.318;2023-10-09T01:37:12;11.70;99.90
22185;DHT22;11258;52.516;13.318;2023-10-09T01:39:47;11.70;99.90
22185;DHT22;11258;52.516;13.318;2023-10-09T01:42:14;11.60;99.90
22185;DHT22;11258;52.516;13.318;2023-10-09T01:44:50;11.70;99.90
22185;DHT22;11258;52.516;13.318;2023-10-09T01:47:18;11.70;99.90
22185;DHT22;11258;52.516;13.318;2023-10-09T01:49:47;11.60;99.90
22185;DHT22;11258;52.516;13.318;2023-10-09T01:52:15;11.60;99.90
22185;DHT22;11258;52.516;13.318;2023-10-09T01:54:42;11.70;99.90
22185;DHT22;11258;52.516;13.318;2023-10-09T01:57:13;11.50;99.90
22185;DHT22;11258;52.516;13.318;2023-10-09T01:59:39;11.40;99.90
22185;DHT22;11258;52.516;13.318;2023-10-09T02:02:19;11.60;99.90
22185;DHT22;11258;52.516;13.318;2023-10-09T02:05:09;11.60;99.90
22185;DHT22;11258;52.516;13.318;2023-10-09T02:07:55;11.50;99.90
22185;DHT22;11258;52.516;13.318;2023-10-09T02:10:24;11.50;99.90
22185;DHT22;11258;52.516;13.318;2023-10-09T02:12:50;11.60;99.90
22185;DHT22;11258;52.516;13.318;2023-10-09T02:15:30;11.50;99.90
22185;DHT22;11258;52.516;13.318;2023-10-09T02:18:20;11.60;99.90
22185;DHT22;11258;52.516;13.318;2023-10-09T02:20:51;11.60;99.90
22185;DHT22;11258;52.516;13.318;2023-10-09T02:23:32;11.60;99.90
22185;DHT22;11258;52.516;13.318;2023-10-09T02:26:13;11.50;99.90
22185;DHT22;11258;52.516;13.318;2023-10-09T02:28:55;11.50;99.90
22185;DHT22;11258;52.516;13.318;2023-10-09T02:31:47;11.50;99.90
22185;DHT22;11258;52.516;13.318;2023-10-09T02:34:17;11.60;99.90
22185;DHT22;11258;52.516;13.318;2023-10-09T02:36:47;11.70;99.90
22185;DHT22;11258;52.516;13.318;2023-10-09T02:39:24;11.80;99.90
22185;DHT22;11258;52.516;13.318;2023-10-09T02:41:54;11.90;99.90
22185;DHT22;11258;52.516;13.318;2023-10-09T02:44:27;11.80;99.90
22185;DHT22;11258;52.516;13.318;2023-10-09T02:47:05;11.70;99.90
22185;DHT22;11258;52.516;13.318;2023-10-09T02:49:37;11.60;99.90
22185;DHT22;11258;52.516;13.318;2023-10-09T02:52:05;11.50;99.90
22185;DHT22;11258;52.516;13.318;2023-10-09T02:54:33;11.40;99.90
22185;DHT22;11258;52.516;13.318;2023-10-09T02:57:07;11.40;99.90
22185;DHT22;11258;52.516;13.318;2023-10-09T02:59:36;11.40;99.90
22185;DHT22;11258;52.516;13.318;2023-10-09T03:02:07;11.50;99.90
22185;DHT22;11258;52.516;13.318;2023-10-09T03:04:33;11.50;99.90
22185;DHT22;11258;52.516;13.318;2023-10-09T03:06:59;11.30;99.90
22185;DHT22;11258;52.516;13.318;2023-10-09T03:09:25;11.50;99.90
22185;DHT22;11258;52.516;13.318;2023-10-09T03:11:59;11.60;99.90
22185;DHT22;11258;52.516;13.318;2023-10-09T03:14:32;11.40;99.90
22185;DHT22;11258;52.516;13.318;2023-10-09T03:17:01;11.50;99.90
22185;DHT22;11258;52.516;13.318;2023-10-09T03:19:28;11.40;99.90
22185;DHT22;11258;52.516;13.318;2023-10-09T03:21:55;11.30;99.90
22185;DHT22;11258;52.516;13.318;2023-10-09T03:24:23;11.40;99.90
22185;DHT22;11258;52.516;13.318;2023-10-09T03:26:49;11.40;99.90
22185;DHT22;11258;52.516;13.318;2023-10-09T03:29:15;11.30;99.90
22185;DHT22;11258;52.516;13.318;2023-10-09T03:31:40;11.40;99.90
22185;DHT22;11258;52.516;13.318;2023-10-09T03:34:08;11.40;99.90
22185;DHT22;11258;52.516;13.318;2023-10-09T03:36:36;11.30;99.90
22185;DHT22;11258;52.516;13.318;2023-10-09T03:39:05;11.30;99.90
22185;DHT22;11258;52.516;13.318;2023-10-09T03:41:49;11.40;99.90
22185;DHT22;11258;52.516;13.318;2023-10-09T03:44:15;11.40;99.90
22185;DHT22;11258;52.516;13.318;2023-10-09T03:46:44;11.50;99.90
22185;DHT22;11258;52.516;13.318;2023-10-09T03:49:10;11.40;99.90
22185;DHT22;11258;52.516;13.318;2023-10-09T03:51:36;11.40;99.90
22185;DHT22;11258;52.516;13.318;2023-10-09T03:54:03;11.20;99.90
22185;DHT22;11258;52.516;13.318;2023-10-09T03:56:33;11.20;99.90
22185;DHT22;11258;52.516;13.318;2023-10-09T03:58:59;11.20;99.90
22185;DHT22;11258;52.516;13.318;2023-10-09T04:01:26;11.40;99.90
22185;DHT22;11258;52.516;13.318;2023-10-09T04:04:03;11.30;99.90
22185;DHT22;11258;52.516;13.318;2023-10-09T04:06:30;11.30;99.90
22185;DHT22;11258;52.516;13.318;2023-10-09T04:09:08;11.30;99.90
22185;DHT22;11258;52.516;13.318;2023-10-09T04:11:46;11.30;99.90
22185;DHT22;11258;52.516;13.318;2023-10-09T04:14:13;11.40;99.90
22185;DHT22;11258;52.516;13.318;2023-10-09T04:16:50;11.60;99.90
22185;DHT22;11258;52.516;13.318;2023-10-09T04:19:29;11.50;99.90
22185;DHT22;11258;52.516;13.318;2023-10-09T04:21:54;11.50;99.90
22185;DHT22;11258;52.516;13.318;2023-10-09T04:24:23;11.40;99.90
22185;DHT22;11258;52.516;13.318;2023-10-09T04:26:50;11.40;99.90
22185;DHT22;11258;52.516;13.318;2023-10-09T04:29:23;11.30;99.90
22185;DHT22;11258;52.516;13.318;2023-10-09T04:31:55;11.30;99.90
22185;DHT22;11258;52.516;13.318;2023-10-09T04:34:25;11.20;99.90
22185;DHT22;11258;52.516;13.318;2023-10-09T04:36:58;11.30;99.90
22185;DHT22;11258;52.516;13.318;2023-10-09T04:39:29;11.20;99.90
22185;DHT22;11258;52.516;13.318;2023-10-09T04:41:56;11.30;99.90
22185;DHT22;11258;52.516;13.318;2023-10-09T04:44:43;11.40;99.90
22185;DHT22;11258;52.516;13.318;2023-10-09T04:47:30;11.40;99.90
22185;DHT22;11258;52.516;13.318;2023-10-09T04:50:06;11.20;99.90
22185;DHT22;11258;52.516;13.318;2023-10-09T04:52:40;11.30;99.90
22185;DHT22;11258;52.516;13.318;2023-10-09T04:55:07;11.20;99.90
22185;DHT22;11258;52.516;13.318;2023-10-09T04:57:43;11.30;99.90
22185;DHT22;11258;52.516;13.318;2023-10-09T05:00:14;11.30;99.90
22185;DHT22;11258;52.516;13.318;2023-10-09T05:05:26;11.10;99.90
22185;DHT22;11258;52.516;13.318;2023-10-09T05:08:12;11.20;99.90
22185;DHT22;11258;52.516;13.318;2023-10-09T05:11:00;11.20;99.90
22185;DHT22;11258;52.516;13.318;2023-10-09T05:13:27;11.10;99.90
22185;DHT22;11258;52.516;13.318;2023-10-09T05:16:18;11.10;99.90
22185;DHT22;11258;52.516;13.318;2023-10-09T05:18:48;11.10;99.90
22185;DHT22;11258;52.516;13.318;2023-10-09T05:21:35;11.10;99.90
22185;DHT22;11258;52.516;13.318;2023-10-09T05:24:01;11.20;99.90
22185;DHT22;11258;52.516;13.318;2023-10-09T05:26:47;11.20;99.90
22185;DHT22;11258;52.516;13.318;2023-10-09T05:29:20;11.20;99.90
22185;DHT22;11258;52.516;13.318;2023-10-09T05:31:59;11.30;99.90
22185;DHT22;11258;52.516;13.318;2023-10-09T05:34:28;11.30;99.90
22185;DHT22;11258;52.516;13.318;2023-10-09T05:37:05;11.30;99.90
22185;DHT22;11258;52.516;13.318;2023-10-09T05:39:48;11.20;99.90
22185;DHT22;11258;52.516;13.318;2023-10-09T05:42:30;11.10;99.90
22185;DHT22;11258;52.516;13.318;2023-10-09T05:45:05;11.10;99.90
22185;DHT22;11258;52.516;13.318;2023-10-09T05:47:48;11.00;99.90
22185;DHT22;11258;52.516;13.318;2023-10-09T05:50:26;11.10;99.90
22185;DHT22;11258;52.516;13.318;2023-10-09T05:52:53;11.00;99.90
22185;DHT22;11258;52.516;13.318;2023-10-09T05:55:24;10.90;99.90
22185;DHT22;11258;52.516;13.318;2023-10-09T05:57:56;10.80;99.90
22185;DHT22;11258;52.516;13.318;2023-10-09T06:00:25;10.90;99.90
22185;DHT22;11258;52.516;13.318;2023-10-09T06:03:10;11.10;99.90
22185;DHT22;11258;52.516;13.318;2023-10-09T06:05:49;11.00;99.90
22185;DHT22;11258;52.516;13.318;2023-10-09T06:08:26;10.90;99.90
22185;DHT22;11258;52.516;13.318;2023-10-09T06:11:13;10.90;99.90
22185;DHT22;11258;52.516;13.318;2023-10-09T06:13:59;11.00;99.90
22185;DHT22;11258;52.516;13.318;2023-10-09T06:16:45;11.00;99.90
22185;DHT22;11258;52.516;13.318;2023-10-09T06:19:24;11.00;99.90
22185;DHT22;11258;52.516;13.318;2023-10-09T06:21:59;11.00;99.90
22185;DHT22;11258;52.516;13.318;2023-10-09T06:24:38;11.00;99.90
22185;DHT22;11258;52.516;13.318;2023-10-09T06:27:08;11.00;99.90
22185;DHT22;11258;52.516;13.318;2023-10-09T06:29:40;11.20;99.90
22185;DHT22;11258;52.516;13.318;2023-10-09T06:32:10;11.30;99.90
22185;DHT22;11258;52.516;13.318;2023-10-09T06:34:57;11.10;99.90
22185;DHT22;11258;52.516;13.318;2023-10-09T06:37:49;11.10;99.90
22185;DHT22;11258;52.516;13.318;2023-10-09T06:40:28;11.20;99.90
22185;DHT22;11258;52.516;13.318;2023-10-09T06:43:13;11.30;99.90
22185;DHT22;11258;52.516;13.318;2023-10-09T06:45:51;11.20;99.90
22185;DHT22;11258;52.516;13.318;2023-10-09T06:48:35;11.20;99.90
22185;DHT22;11258;52.516;13.318;2023-10-09T06:51:11;11.20;99.90
22185;DHT22;11258;52.516;13.318;2023-10-09T06:56:21;11.20;99.90
22185;DHT22;11258;52.516;13.318;2023-10-09T06:59:00;11.10;99.90
22185;DHT22;11258;52.516;13.318;2023-10-09T07:01:44;11.20;99.90
22185;DHT22;11258;52.516;13.318;2023-10-09T07:04:12;11.30;99.90
22185;DHT22;11258;52.516;13.318;2023-10-09T07:06:50;11.50;99.90
22185;DHT22;11258;52.516;13.318;2023-10-09T07:09:22;11.40;99.90
22185;DHT22;11258;52.516;13.318;2023-10-09T07:11:49;11.50;99.90
22185;DHT22;11258;52.516;13.318;2023-10-09T07:14:20;11.60;99.90
22185;DHT22;11258;52.516;13.318;2023-10-09T07:16:59;11.70;99.90
22185;DHT22;11258;52.516;13.318;2023-10-09T07:19:29;11.90;99.90
22185;DHT22;11258;52.516;13.318;2023-10-09T07:22:21;12.00;99.90
22185;DHT22;11258;52.516;13.318;2023-10-09T07:24:51;11.90;99.90
22185;DHT22;11258;52.516;13.318;2023-10-09T07:27:29;11.80;99.90
22185;DHT22;11258;52.516;13.318;2023-10-09T07:30:18;11.90;99.90
22185;DHT22;11258;52.516;13.318;2023-10-09T07:32:56;11.80;99.90
22185;DHT22;11258;52.516;13.318;2023-10-09T07:35:34;11.70;99.90
22185;DHT22;11258;52.516;13.318;2023-10-09T07:38:23;11.60;99.90
22185;DHT22;11258;52.516;13.318;2023-10-09T07:40:50;11.70;99.90
22185;DHT22;11258;52.516;13.318;2023-10-09T07:43:42;11.70;99.90
22185;DHT22;11258;52.516;13.318;2023-10-09T07:48:56;11.60;99.90
22185;DHT22;11258;52.516;13.318;2023-10-09T07:51:24;11.50;99.90
22185;DHT22;11258;52.516;13.318;2023-10-09T07:53:57;11.60;99.90
22185;DHT22;11258;52.516;13.318;2023-10-09T07:56:26;11.60;99.90
22185;DHT22;11258;52.516;13.318;2023-10-09T07:58:56;11.70;99.90
22185;DHT22;11258;52.516;13.318;2023-10-09T08:01:26;11.70;99.90
22185;DHT22;11258;52.516;13.318;2023-10-09T08:03:51;11.70;99.90
22185;DHT22;11258;52.516;13.318;2023-10-09T08:06:27;11.70;99.90
22185;DHT22;11258;52.516;13.318;2023-10-09T08:09:09;11.90;99.90
22185;DHT22;11258;52.516;13.318;2023-10-09T08:11:38;11.80;99.90
22185;DHT22;11258;52.516;13.318;2023-10-09T08:14:22;11.60;99.90
22185;DHT22;11258;52.516;13.318;2023-10-09T08:17:00;11.70;99.90
22185;DHT22;11258;52.516;13.318;2023-10-09T08:19:50;11.80;99.90
22185;DHT22;11258;52.516;13.318;2023-10-09T08:22:27;11.90;99.90
22185;DHT22;11258;52.516;13.318;2023-10-09T08:24:56;12.10;99.90
22185;DHT22;11258;52.516;13.318;2023-10-09T08:29:58;12.00;99.90
22185;DHT22;11258;52.516;13.318;2023-10-09T08:32:42;12.00;99.90
22185;DHT22;11258;52.516;13.318;2023-10-09T08:35:09;12.00;99.90
22185;DHT22;11258;52.516;13.318;2023-10-09T08:37:53;12.20;99.90
22185;DHT22;11258;52.516;13.318;2023-10-09T08:40:19;12.20;99.90
22185;DHT22;11258;52.516;13.318;2023-10-09T08:42:52;12.20;99.90
22185;DHT22;11258;52.516;13.318;2023-10-09T08:45:22;12.20;99.90
22185;DHT22;11258;52.516;13.318;2023-10-09T08:47:52;12.20;99.90
22185;DHT22;11258;52.516;13.318;2023-10-09T08:50:19;12.10;99.90
22185;DHT22;11258;52.516;13.318;2023-10-09T08:52:47;12.20;99.90
22185;DHT22;11258;52.516;13.318;2023-10-09T08:55:14;12.20;99.90
22185;DHT22;11258;52.516;13.318;2023-10-09T08:57:44;12.30;99.90
22185;DHT22;11258;52.516;13.318;2023-10-09T09:00:17;12.10;99.90
22185;DHT22;11258;52.516;13.318;2023-10-09T09:02:47;12.20;99.90
22185;DHT22;11258;52.516;13.318;2023-10-09T09:05:17;12.00;99.90
22185;DHT22;11258;52.516;13.318;2023-10-09T09:07:44;12.00;99.90
22185;DHT22;11258;52.516;13.318;2023-10-09T09:10:09;12.00;99.90
22185;DHT22;11258;52.516;13.318;2023-10-09T09:12:49;12.00;99.90
22185;DHT22;11258;52.516;13.318;2023-10-09T09:15:35;11.90;99.90
22185;DHT22;11258;52.516;13.318;2023-10-09T09:18:07;12.00;99.90
22185;DHT22;11258;52.516;13.318;2023-10-09T09:20:34;11.90;99.90
22185;DHT22;11258;52.516;13.318;2023-10-09T09:23:02;11.90;99.90
22185;DHT22;11258;52.516;13.318;2023-10-09T09:25:47;12.00;99.90
22185;DHT22;11258;52.516;13.318;2023-10-09T09:28:26;11.90;99.90
22185;DHT22;11258;52.516;13.318;2023-10-09T09:31:10;11.90;99.90
22185;DHT22;11258;52.516;13.318;2023-10-09T09:33:39;12.00;99.90
22185;DHT22;11258;52.516;13.318;2023-10-09T09:36:13;12.00;99.90
22185;DHT22;11258;52.516;13.318;2023-10-09T09:38:39;12.00;99.90
22185;DHT22;11258;52.516;13.318;2023-10-09T09:41:11;12.20;99.90
22185;DHT22;11258;52.516;13.318;2023-10-09T09:43:37;12.30;99.90
22185;DHT22;11258;52.516;13.318;2023-10-09T09:46:11;12.10;99.90
22185;DHT22;11258;52.516;13.318;2023-10-09T09:48:40;12.10;99.90
22185;DHT22;11258;52.516;13.318;2023-10-09T09:51:10;12.10;99.90
22185;DHT22;11258;52.516;13.318;2023-10-09T09:53:36;11.90;99.90
22185;DHT22;11258;52.516;13.318;2023-10-09T09:56:03;12.00;99.90
22185;DHT22;11258;52.516;13.318;2023-10-09T09:58:30;11.90;99.90
22185;DHT22;11258;52.516;13.318;2023-10-09T10:01:09;12.00;99.90
22185;DHT22;11258;52.516;13.318;2023-10-09T10:03:58;12.00;99.90
22185;DHT22;11258;52.516;13.318;2023-10-09T10:06:25;12.00;99.90
22185;DHT22;11258;52.516;13.318;2023-10-09T10:08:52;11.90;99.90
22185;DHT22;11258;52.516;13.318;2023-10-09T10:11:44;12.00;99.90
22185;DHT22;11258;52.516;13.318;2023-10-09T10:14:11;11.90;99.90
22185;DHT22;11258;52.516;13.318;2023-10-09T10:17:05;11.90;99.90
22185;DHT22;11258;52.516;13.318;2023-10-09T10:22:26;11.90;99.90
22185;DHT22;11258;52.516;13.318;2023-10-09T10:24:53;11.70;99.90
22185;DHT22;11258;52.516;13.318;2023-10-09T10:27:23;11.90;99.90
22185;DHT22;11258;52.516;13.318;2023-10-09T10:32:54;11.90;99.90
22185;DHT22;11258;52.516;13.318;2023-10-09T10:35:22;11.70;99.90
22185;DHT22;11258;52.516;13.318;2023-10-09T10:38:29;11.80;99.90
22185;DHT22;11258;52.516;13.318;2023-10-09T10:43:37;12.00;99.90
22185;DHT22;11258;52.516;13.318;2023-10-09T10:46:19;11.90;99.90
22185;DHT22;11258;52.516;13.318;2023-10-09T10:49:05;12.10;99.90
22185;DHT22;11258;52.516;13.318;2023-10-09T10:51:41;12.20;99.90
22185;DHT22;11258;52.516;13.318;2023-10-09T10:54:21;12.40;99.90
22185;DHT22;11258;52.516;13.318;2023-10-09T10:56:59;12.40;99.90
22185;DHT22;11258;52.516;13.318;2023-10-09T10:59:30;12.50;99.90
22185;DHT22;11258;52.516;13.318;2023-10-09T11:02:09;12.50;99.90
22185;DHT22;11258;52.516;13.318;2023-10-09T11:04:35;12.60;99.90
22185;DHT22;11258;52.516;13.318;2023-10-09T11:07:11;12.70;99.90
22185;DHT22;11258;52.516;13.318;2023-10-09T11:09:49;12.40;99.90
22185;DHT22;11258;52.516;13.318;2023-10-09T11:12:31;12.30;99.90
22185;DHT22;11258;52.516;13.318;2023-10-09T11:15:16;12.40;99.90
22185;DHT22;11258;52.516;13.318;2023-10-09T11:20:36;12.70;99.90
22185;DHT22;11258;52.516;13.318;2023-10-09T11:23:04;12.80;99.90
22185;DHT22;11258;52.516;13.318;2023-10-09T11:25:40;13.00;99.90
22185;DHT22;11258;52.516;13.318;2023-10-09T11:28:19;13.00;99.90
22185;DHT22;11258;52.516;13.318;2023-10-09T11:31:18;12.90;99.90
22185;DHT22;11258;52.516;13.318;2023-10-09T11:33:48;13.00;99.90
22185;DHT22;11258;52.516;13.318;2023-10-09T11:36:15;12.90;99.90
22185;DHT22;11258;52.516;13.318;2023-10-09T11:38:41;12.80;99.90
22185;DHT22;11258;52.516;13.318;2023-10-09T11:41:17;12.90;99.90
22185;DHT22;11258;52.516;13.318;2023-10-09T11:43:53;13.00;99.90
22185;DHT22;11258;52.516;13.318;2023-10-09T11:46:23;13.20;99.90
22185;DHT22;11258;52.516;13.318;2023-10-09T11:49:09;13.00;99.90
22185;DHT22;11258;52.516;13.318;2023-10-09T11:51:47;13.20;99.90
22185;DHT22;11258;52.516;13.318;2023-10-09T11:54:32;13.20;99.90
22185;DHT22;11258;52.516;13.318;2023-10-09T11:57:02;13.50;99.90
22185;DHT22;11258;52.516;13.318;2023-10-09T11:59:28;13.60;99.90
22185;DHT22;11258;52.516;13.318;2023-10-09T12:02:00;13.70;99.90
22185;DHT22;11258;52.516;13.318;2023-10-09T12:04:26;14.00;99.90
22185;DHT22;11258;52.516;13.318;2023-10-09T12:06:56;13.80;99.90
22185;DHT22;11258;52.516;13.318;2023-10-09T12:09:32;13.50;99.90
22185;DHT22;11258;52.516;13.318;2023-10-09T12:12:03;13.10;99.90
22185;DHT22;11258;52.516;13.318;2023-10-09T12:14:30;13.00;99.90
22185;DHT22;11258;52.516;13.318;2023-10-09T12:17:07;13.00;99.90
22185;DHT22;11258;52.516;13.318;2023-10-09T12:19:36;13.00;99.90
22185;DHT22;11258;52.516;13.318;2023-10-09T12:22:04;12.90;99.90
22185;DHT22;11258;52.516;13.318;2023-10-09T12:24:31;13.10;99.90
22185;DHT22;11258;52.516;13.318;2023-10-09T12:26:57;13.20;99.90
22185;DHT22;11258;52.516;13.318;2023-10-09T12:29:23;13.40;99.90
22185;DHT22;11258;52.516;13.318;2023-10-09T12:31:50;13.20;99.90
22185;DHT22;11258;52.516;13.318;2023-10-09T12:34:24;13.10;99.90
22185;DHT22;11258;52.516;13.318;2023-10-09T12:36:55;12.90;99.90
22185;DHT22;11258;52.516;13.318;2023-10-09T12:39:23;12.70;99.90
22185;DHT22;11258;52.516;13.318;2023-10-09T12:41:50;12.90;99.90
22185;DHT22;11258;52.516;13.318;2023-10-09T12:44:19;12.80;99.90
22185;DHT22;11258;52.516;13.318;2023-10-09T12:46:47;12.80;99.90
22185;DHT22;11258;52.516;13.318;2023-10-09T12:49:20;12.90;99.90
22185;DHT22;11258;52.516;13.318;2023-10-09T12:51:51;13.10;99.90
22185;DHT22;11258;52.516;13.318;2023-10-09T12:54:17;12.90;99.90
22185;DHT22;11258;52.516;13.318;2023-10-09T12:56:46;12.70;99.90
22185;DHT22;11258;52.516;13.318;2023-10-09T12:59:15;12.80;99.90
22185;DHT22;11258;52.516;13.318;2023-10-09T13:01:43;12.90;99.90
22185;DHT22;11258;52.516;13.318;2023-10-09T13:04:15;12.90;99.90
22185;DHT22;11258;52.516;13.318;2023-10-09T13:06:45;12.80;99.90
22185;DHT22;11258;52.516;13.318;2023-10-09T13:09:17;12.70;99.90
22185;DHT22;11258;52.516;13.318;2023-10-09T13:11:58;12.70;99.90
22185;DHT22;11258;52.516;13.318;2023-10-09T13:14:26;12.80;99.90
22185;DHT22;11258;52.516;13.318;2023-10-09T13:16:52;12.80;99.90
22185;DHT22;11258;52.516;13.318;2023-10-09T13:19:18;12.70;99.90
22185;DHT22;11258;52.516;13.318;2023-10-09T13:21:44;12.50;99.90
22185;DHT22;11258;52.516;13.318;2023-10-09T13:24:10;12.40;99.90
22185;DHT22;11258;52.516;13.318;2023-10-09T13:26:45;12.40;99.90
22185;DHT22;11258;52.516;13.318;2023-10-09T13:29:16;12.40;99.90
22185;DHT22;11258;52.516;13.318;2023-10-09T13:31:48;12.40;99.90
22185;DHT22;11258;52.516;13.318;2023-10-09T13:34:16;12.40;99.90
22185;DHT22;11258;52.516;13.318;2023-10-09T13:36:42;12.40;99.90
22185;DHT22;11258;52.516;13.318;2023-10-09T13:39:21;12.40;99.90
22185;DHT22;11258;52.516;13.318;2023-10-09T13:42:08;12.30;99.90
22185;DHT22;11258;52.516;13.318;2023-10-09T13:44:34;12.50;99.90
22185;DHT22;11258;52.516;13.318;2023-10-09T13:47:05;12.50;99.90
22185;DHT22;11258;52.516;13.318;2023-10-09T13:49:33;12.50;99.90
22185;DHT22;11258;52.516;13.318;2023-10-09T13:52:02;12.30;99.90
22185;DHT22;11258;52.516;13.318;2023-10-09T13:54:28;12.50;99.90
22185;DHT22;11258;52.516;13.318;2023-10-09T13:57:05;12.60;99.90
22185;DHT22;11258;52.516;13.318;2023-10-09T13:59:32;12.50;99.90
22185;DHT22;11258;52.516;13.318;2023-10-09T14:01:58;12.40;99.90
22185;DHT22;11258;52.516;13.318;2023-10-09T14:04:25;12.50;99.90
22185;DHT22;11258;52.516;13.318;2023-10-09T14:06:52;12.40;99.90
22185;DHT22;11258;52.516;13.318;2023-10-09T14:09:27;12.40;99.90
22185;DHT22;11258;52.516;13.318;2023-10-09T14:12:10;12.30;99.90
22185;DHT22;11258;52.516;13.318;2023-10-09T14:14:41;12.50;99.90
22185;DHT22;11258;52.516;13.318;2023-10-09T14:17:13;12.70;99.90
22185;DHT22;11258;52.516;13.318;2023-10-09T14:19:43;12.70;99.90
22185;DHT22;11258;52.516;13.318;2023-10-09T14:22:16;12.80;99.90
22185;DHT22;11258;52.516;13.318;2023-10-09T14:24:43;12.80;99.90
22185;DHT22;11258;52.516;13.318;2023-10-09T14:27:11;12.70;99.90
22185;DHT22;11258;52.516;13.318;2023-10-09T14:29:46;12.70;99.90
22185;DHT22;11258;52.516;13.318;2023-10-09T14:32:13;12.70;99.90
22185;DHT22;11258;52.516;13.318;2023-10-09T14:34:39;12.80;99.90
22185;DHT22;11258;52.516;13.318;2023-10-09T14:37:11;13.00;99.90
22185;DHT22;11258;52.516;13.318;2023-10-09T14:39:38;12.90;99.90
22185;DHT22;11258;52.516;13.318;2023-10-09T14:42:05;13.00;99.90
22185;DHT22;11258;52.516;13.318;2023-10-09T14:44:37;12.90;99.90
22185;DHT22;11258;52.516;13.318;2023-10-09T14:47:04;12.80;99.90
22185;DHT22;11258;52.516;13.318;2023-10-09T14:49:34;12.90;99.90
22185;DHT22;11258;52.516;13.318;2023-10-09T14:52:19;12.80;99.90
22185;DHT22;11258;52.516;13.318;2023-10-09T14:54:46;12.80;99.90
22185;DHT22;11258;52.516;13.318;2023-10-09T14:57:12;12.80;99.90
22185;DHT22;11258;52.516;13.318;2023-10-09T14:59:38;12.80;99.90
22185;DHT22;11258;52.516;13.318;2023-10-09T15:02:05;12.60;99.90
22185;DHT22;11258;52.516;13.318;2023-10-09T15:04:31;12.60;99.90
22185;DHT22;11258;52.516;13.318;2023-10-09T15:07:01;12.70;99.90
22185;DHT22;11258;52.516;13.318;2023-10-09T15:09:27;12.70;99.90
22185;DHT22;11258;52.516;13.318;2023-10-09T15:11:56;12.60;99.90
22185;DHT22;11258;52.516;13.318;2023-10-09T15:14:23;12.50;99.90
22185;DHT22;11258;52.516;13.318;2023-10-09T15:16:49;12.50;99.90
22185;DHT22;11258;52.516;13.318;2023-10-09T15:19:15;12.40;99.90
22185;DHT22;11258;52.516;13.318;2023-10-09T15:21:42;12.40;99.90
22185;DHT22;11258;52.516;13.318;2023-10-09T15:24:12;12.50;99.90
22185;DHT22;11258;52.516;13.318;2023-10-09T15:26:47;12.40;99.90
22185;DHT22;11258;52.516;13.318;2023-10-09T15:29:20;12.40;99.90
22185;DHT22;11258;52.516;13.318;2023-10-09T15:31:52;12.40;99.90
22185;DHT22;11258;52.516;13.318;2023-10-09T15:34:17;12.40;99.90
22185;DHT22;11258;52.516;13.318;2023-10-09T15:36:46;12.50;99.90
22185;DHT22;11258;52.516;13.318;2023-10-09T15:39:15;12.40;99.90
22185;DHT22;11258;52.516;13.318;2023-10-09T15:41:45;12.40;99.90
22185;DHT22;11258;52.516;13.318;2023-10-09T15:44:11;12.40;99.90
22185;DHT22;11258;52.516;13.318;2023-10-09T15:46:39;12.60;99.90
22185;DHT22;11258;52.516;13.318;2023-10-09T15:49:05;12.50;99.90
22185;DHT22;11258;52.516;13.318;2023-10-09T15:51:32;12.50;99.90
22185;DHT22;11258;52.516;13.318;2023-10-09T15:53:58;12.40;99.90
22185;DHT22;11258;52.516;13.318;2023-10-09T15:56:26;12.40;99.90
22185;DHT22;11258;52.516;13.318;2023-10-09T15:58:52;12.50;99.90
22185;DHT22;11258;52.516;13.318;2023-10-09T16:01:19;12.40;99.90
22185;DHT22;11258;52.516;13.318;2023-10-09T16:03:46;12.40;99.90
22185;DHT22;11258;52.516;13.318;2023-10-09T16:06:17;12.30;99.90
22185;DHT22;11258;52.516;13.318;2023-10-09T16:08:47;12.40;99.90
22185;DHT22;11258;52.516;13.318;2023-10-09T16:11:18;12.30;99.90
22185;DHT22;11258;52.516;13.318;2023-10-09T16:13:44;12.30;99.90